Flight Track Log - Related Links

Times and Time Zones

All times are in EDT time to prevent confusion due to time zone crossing. See the ASQ4633 flight status page for this flight to view local times or setup timezone preferences in your user account.

Time Position Orientation Groundspeed Altitude Reporting Facility
EDT Latitude Longitude Course Direction KTS MPH feet Rate Location/Type
Wed 14:37:57 41.9333 -87.9000 78° East 198 228 2,500  Level Chicago TRACON
Wed 14:38:51 41.9000 -87.8333 124° Southeast 238 274 4,600 2,389 Climbing Chicago TRACON
Wed 14:39:45 41.9000 -87.7500 90° East 259 298 6,800 2,243 Climbing Chicago TRACON
Wed 14:40:00 42.0344 -87.5384 83° East  Level FlightAware
Wed 14:40:46 41.9000 -87.6500 90° East 288 331 8,900  Level Chicago TRACON
Wed 14:41:00 42.0458 -87.4126 83° East  Level FlightAware
Wed 14:41:52 41.9500 -87.5333 60° Northeast 310 357 12,000  Level Chicago TRACON
Wed 14:42:00 42.0622 -87.2879 78° East  Level FlightAware
Wed 14:43:00 42.0814 -87.1625 78° East  Level FlightAware
Wed 14:43:59 42.0192 -87.3272 66° East 332 382 15,800  Level Chicago Center
Wed 14:45:01 42.0675 -87.1919 64° Northeast 336 387 18,700 2,177 Climbing Chicago Center
Wed 14:46:03 42.1064 -87.0783 65° Northeast 337 388 20,300 1,500 Climbing Chicago Center
Wed 14:47:05 42.1153 -86.9486 85° East 355 409 21,800 1,452 Climbing Chicago Center
Wed 14:48:07 42.1217 -86.8161 86° East 357 411 23,300 1,355 Climbing Chicago Center
Wed 14:49:09 42.1261 -86.6822 87° East 366 421 24,600 823 Climbing Chicago Center
Wed 14:50:11 42.1311 -86.5061 88° East 389 448 25,000 194 Climbing Chicago Center
Wed 14:51:13 42.1369 -86.3497 87° East 411 473 25,000  Level Chicago Center
Wed 14:52:15 42.1414 -86.1936 88° East 417 480 25,000  Level Chicago Center
Wed 14:53:17 42.1422 -86.0394 90° East 414 476 25,000  Level Chicago Center
Wed 14:54:19 42.1369 -85.8678 92° East 411 473 25,000  Level Chicago Center
Wed 14:55:21 42.1331 -85.7161 92° East 408 470 25,000  Level Chicago Center
Wed 14:56:23 42.1289 -85.5617 92° East 414 476 25,000  Level Chicago Center
Wed 14:57:26 42.1239 -85.4089 92° East 411 473 25,000  Level Chicago Center
Wed 14:57:57 42.1247 -85.3236 89° East 408 470 25,000  Level Cleveland Center
Wed 14:58:57 42.1186 -85.1692 93° East 408 470 25,000  Level Cleveland Center
Wed 14:59:57 42.1139 -85.0175 92° East 408 470 25,000  Level Cleveland Center
Wed 15:00:57 42.1094 -84.8603 92° East 408 470 25,000  Level Cleveland Center
Wed 15:01:57 42.1047 -84.7061 92° East 408 470 25,000  Level Cleveland Center
Wed 15:02:57 42.0978 -84.5517 93° East 408 470 25,000  Level Cleveland Center
Wed 15:03:57 42.0925 -84.3975 93° East 408 470 25,000 -300 Level Cleveland Center
Wed 15:04:57 42.0792 -84.2258 96° East 408 470 24,400 -500 Descending Cleveland Center
Wed 15:05:57 42.0739 -84.0689 93° East 408 470 24,000 -200 Descending Cleveland Center
Wed 15:06:57 42.0658 -83.9117 94° East 408 470 24,000  Level Cleveland Center
Wed 15:07:57 42.0597 -83.7603 93° East 408 470 24,000  Level Cleveland Center
Wed 15:08:57 42.0536 -83.6064 93° East 408 470 24,000 -50 Level Cleveland Center
Wed 15:09:57 42.0469 -83.4550 93° East 408 470 23,900 -500 Descending Cleveland Center
Wed 15:10:57 42.0319 -83.3033 98° East 408 470 23,000 -950 Descending Cleveland Center
Wed 15:11:57 42.0164 -83.1628 98° East 408 470 22,000 -1,050 Descending Cleveland Center
Wed 15:12:57 42.0031 -83.0142 97° East 408 470 20,900 -1,300 Descending Cleveland Center
Wed 15:13:57 41.9892 -82.8683 97° East 408 470 19,400 -1,700 Descending Cleveland Center
Wed 15:14:57 41.9753 -82.7311 98° East 397 457 17,500 -2,150 Descending Cleveland Center
Wed 15:15:57 41.9611 -82.5908 98° East 385 443 15,100 -2,200 Descending Cleveland Center
Wed 15:16:57 41.9300 -82.4617 108° East 367 422 13,100 -2,000 Descending Cleveland Center
Wed 15:17:39 41.8961 -82.3628 115° Southeast 361 415 11,700 -1,700 Descending Cleveland Center
Wed 15:17:57 41.8922 -82.3378 102° East 362 417 11,400 -1,674 Descending Cleveland Center
Wed 15:18:22 41.8725 -82.2786 114° Southeast 352 405 10,500 -1,300 Descending Cleveland Center
Wed 15:18:57 41.8544 -82.2194 112° Southeast 350 403 10,100 -417 Descending Cleveland Center
Wed 15:19:34 41.8158 -82.1489 126° Southeast 359 413 10,000 -100 Descending Cleveland Center
Wed 15:19:57 41.7786 -82.1172 148° Southeast 339 390 10,000  Level Cleveland Center
Wed 15:20:41 41.7253 -82.0717 147° Southeast 318 366 10,000  Level Cleveland Center
Wed 15:20:57 41.7128 -82.0600 145° Southeast 334 384 10,000 -667 Level Cleveland Center
Wed 15:21:17 41.6817 -82.0400 154° Southeast 271 312 9,600 -1,000 Descending Cleveland Center
Wed 15:21:57 41.6467 -82.0058 144° Southeast 303 349 9,000 -1,291 Descending Cleveland Center
Wed 15:22:36 41.5972 -81.9686 151° Southeast 272 313 7,900 -1,400 Descending Cleveland Center
Wed 15:22:57 41.5850 -81.9489 130° Southeast 279 321 7,600 -977 Descending Cleveland Center
Wed 15:23:19 41.5814 -81.9044 96° East 269 310 7,200 -600 Descending Cleveland Center
Wed 15:23:57 41.5797 -81.8489 92° East 249 287 7,000 -590 Descending Cleveland Center
Wed 15:24:20 41.5783 -81.8072 93° East 271 312 6,600 -1,400 Descending Cleveland Center
Wed 15:24:57 41.5789 -81.7517 89° East 261 300 5,600 -1,400 Descending Cleveland Center
Wed 15:25:20 41.5958 -81.7131 60° Northeast 265 305 5,200 -600 Descending Cleveland Center
Wed 15:25:57 41.5922 -81.6658 96° East 241 277 5,000 -494 Descending Cleveland Center
Wed 15:26:45 41.5400 -81.6678 182° South 254 292 4,500 -857 Descending Cleveland Center
Wed 15:27:28 41.4978 -81.7086 216° Southwest 244 281 3,700 -1,116 Descending Cleveland Center

Login

Don't have an account? Register now (free) for customized features, flight alerts, and more!